Thunder radar more information blitzortung!


Radar de pluja more information rain snow radar


Visita la nostra xarxa de llocs de meteo:

Template documentation
and downloads

And another site



No particular awareness of the weather is required.    There are no Weather-warnings

Pagina Historial Weather Underground text

Diari Resum January 17, 2016 Unitats:  Mètric    Imperial   Tant
« Previous Dia
SegĂźent Dia »
Diari Setmana Mensual Anual Personalitzada
  Maxima: Minima: Media:
Temperatura: 9.0 °C 6.1 °C 7 °C
Punt de rosada: -4.9 °C -6.4 °C -5.9 °C
Humitat: 43 % 37 % 40 %
Wind Speed: 5.0 km/h 0.0 km/h 2 km/h
RĂ fegues de vent: 5.0 km/h - -
Vent:- - SSE
Pression baro: 1022.9 hPa 1021.9 hPa -
Precipitacions: 0.0 mm    
Historical Graphs
 
 
Dades de taula per January 17, 2016
Temps Temperatura Punt de rosada Pression baro Vent Wind Speed RĂ fegues de vent Humitat Rainfall Rate (Hourly)
17:29 9.0 °C -4.9 °C 1022.9 hPa WNW 1.9 km/h 1.9 km/h 37 % 0.0 mm
17:34 9.0 °C -4.9 °C 1022.9 hPa SW 3.7 km/h 3.7 km/h 37 % 0.0 mm
17:39 9.0 °C -4.9 °C 1022.9 hPa SW 1.9 km/h   37 % 0.0 mm
17:44 8.6 °C -5.3 °C 1022.9 hPa Calm     37 % 0.0 mm
17:49 8.5 °C -5.4 °C 1022.9 hPa NNE 1.9 km/h 1.9 km/h 37 % 0.0 mm
17:54 8.5 °C -5.4 °C 1022.9 hPa NE 3.7 km/h 3.7 km/h 37 % 0.0 mm
17:59 8.2 °C -5.7 °C 1022.9 hPa North 1.9 km/h 1.9 km/h 37 % 0.0 mm
18:04 8.0 °C -5.8 °C 1022.9 hPa NW 3.7 km/h 3.7 km/h 37 % 0.0 mm
18:09 8.0 °C -5.8 °C 1022.9 hPa Calm     37 % 0.0 mm
18:14 7.9 °C -5.9 °C 1022.9 hPa NW 3.7 km/h 3.7 km/h 37 % 0.0 mm
18:19 7.7 °C -5.7 °C 1022.9 hPa Calm     38 % 0.0 mm
18:24 7.7 °C -5.7 °C 1022.9 hPa NNW 5.0 km/h 5.0 km/h 38 % 0.0 mm
18:34 7.7 °C -5.7 °C 1022.9 hPa NE 3.7 km/h 3.7 km/h 38 % 0.0 mm
18:39 7.7 °C -5.7 °C 1022.9 hPa ENE 2.3 km/h 2.3 km/h 38 % 0.0 mm
18:44 7.5 °C -5.9 °C 1022.9 hPa NE 3.7 km/h 3.7 km/h 38 % 0.0 mm
18:49 7.5 °C -5.9 °C 1022.9 hPa NNE 1.9 km/h   38 % 0.0 mm
18:54 7.5 °C -5.9 °C 1022.9 hPa NE 1.9 km/h   38 % 0.0 mm
19:04 7.5 °C -5.9 °C 1022.9 hPa Calm     38 % 0.0 mm
19:09 7.5 °C -5.9 °C 1022.9 hPa West 3.7 km/h 3.7 km/h 38 % 0.0 mm
19:14 7.0 °C -6.4 °C 1022.9 hPa WSW 3.7 km/h 3.7 km/h 38 % 0.0 mm
19:19 7.0 °C -6.4 °C 1022.9 hPa WSW 3.7 km/h 3.7 km/h 38 % 0.0 mm
19:24 7.0 °C -6.4 °C 1022.9 hPa Calm     38 % 0.0 mm
19:29 7.0 °C -6.4 °C 1022.9 hPa WSW 1.9 km/h 1.9 km/h 38 % 0.0 mm
19:34 6.9 °C -6.4 °C 1022.9 hPa Calm     38 % 0.0 mm
19:39 6.9 °C -6.1 °C 1022.9 hPa Calm     39 % 0.0 mm
19:44 6.9 °C -6.1 °C 1022.9 hPa Calm     39 % 0.0 mm
19:59 6.9 °C -6.1 °C 1022.9 hPa Calm     39 % 0.0 mm
20:04 7.0 °C -6.1 °C 1022.9 hPa WSW 3.7 km/h   39 % 0.0 mm
20:14 7.0 °C -6.1 °C 1022.9 hPa West 3.7 km/h 3.7 km/h 39 % 0.0 mm
20:19 7.0 °C -6.1 °C 1022.9 hPa WSW 3.7 km/h 3.7 km/h 39 % 0.0 mm
20:24 6.8 °C -6.2 °C 1022.9 hPa Calm     39 % 0.0 mm
20:29 6.8 °C -5.9 °C 1022.9 hPa SW 1.4 km/h   40 % 0.0 mm
20:34 6.8 °C -5.9 °C 1022.9 hPa ENE 3.7 km/h 3.7 km/h 40 % 0.0 mm
20:39 6.8 °C -5.9 °C 1022.9 hPa ENE 3.7 km/h 3.7 km/h 40 % 0.0 mm
20:44 6.8 °C -5.9 °C 1022.9 hPa Calm     40 % 0.0 mm
20:49 6.7 °C -5.9 °C 1022.9 hPa ENE 2.3 km/h 2.3 km/h 40 % 0.0 mm
20:54 6.7 °C -5.9 °C 1022.9 hPa ENE 1.9 km/h 1.9 km/h 40 % 0.0 mm
20:59 6.7 °C -5.9 °C 1022.9 hPa NE 2.3 km/h   40 % 0.0 mm
21:04 6.7 °C -5.9 °C 1022.9 hPa NE 1.9 km/h   40 % 0.0 mm
21:09 6.5 °C -6.2 °C 1021.9 hPa West 2.3 km/h 2.3 km/h 40 % 0.0 mm
21:19 6.5 °C -6.2 °C 1021.9 hPa WSW 3.7 km/h 3.7 km/h 40 % 0.0 mm
21:24 6.5 °C -6.2 °C 1022.9 hPa Calm     40 % 0.0 mm
21:29 6.5 °C -6.2 °C 1022.9 hPa North 1.9 km/h   40 % 0.0 mm
21:34 6.5 °C -6.2 °C 1022.9 hPa WNW 3.7 km/h 3.7 km/h 40 % 0.0 mm
21:44 6.5 °C -6.2 °C 1022.9 hPa NNE 3.7 km/h 3.7 km/h 40 % 0.0 mm
21:49 6.5 °C -6.2 °C 1022.9 hPa NNE 1.9 km/h 1.9 km/h 40 % 0.0 mm
21:54 6.5 °C -6.2 °C 1021.9 hPa WNW 1.9 km/h 1.9 km/h 40 % 0.0 mm
21:59 6.5 °C -6.2 °C 1021.9 hPa NNW 2.3 km/h 2.3 km/h 40 % 0.0 mm
22:04 6.5 °C -6.2 °C 1021.9 hPa NW 3.7 km/h 3.7 km/h 40 % 0.0 mm
22:09 6.5 °C -6.2 °C 1021.9 hPa WNW 1.9 km/h   40 % 0.0 mm
22:14 6.5 °C -6.2 °C 1021.9 hPa Calm     40 % 0.0 mm
22:19 6.5 °C -6.2 °C 1021.9 hPa Calm     40 % 0.0 mm
22:24 6.3 °C -5.4 °C 1021.9 hPa WNW 1.9 km/h 1.9 km/h 43 % 0.0 mm
22:29 6.3 °C -5.4 °C 1021.9 hPa Calm     43 % 0.0 mm
22:39 6.3 °C -5.4 °C 1021.9 hPa North 1.9 km/h   43 % 0.0 mm
22:44 6.2 °C -5.5 °C 1021.9 hPa NNW 3.7 km/h 3.7 km/h 43 % 0.0 mm
22:49 6.2 °C -5.5 °C 1021.9 hPa Calm     43 % 0.0 mm
22:54 6.2 °C -5.5 °C 1021.9 hPa Calm     43 % 0.0 mm
23:04 6.1 °C -5.6 °C 1021.9 hPa NNE 3.7 km/h 3.7 km/h 43 % 0.0 mm
23:09 6.1 °C -5.6 °C 1021.9 hPa ENE 2.3 km/h 2.3 km/h 43 % 0.0 mm
23:14 6.1 °C -5.6 °C 1021.9 hPa ENE 3.5 km/h   43 % 0.0 mm
23:24 6.1 °C -5.6 °C 1021.9 hPa Calm     43 % 0.0 mm
23:29 6.1 °C -5.6 °C 1021.9 hPa Calm     43 % 0.0 mm
Meteo Sesrovires
Elogis d' Weather Underground - 2.75 mb

Guio original per  Jim McMurry - jmcmurry@mwt.net Adaptat per a la plantilla per  Wim van der Kuil - Leuven-Template.eu

Trobareu la nostra informacio del temps tambe a:

Weather Underground

AWEKAS